createdAt,value
2018-02-07T00:03:22.075Z,43.43
2018-02-07T00:08:16.400Z,44.83
2018-02-07T00:13:10.688Z,39.97
2018-02-07T00:18:05.535Z,40.83
2018-02-07T00:23:00.589Z,41.90
2018-02-07T00:27:54.859Z,40.37
2018-02-07T00:32:49.880Z,40.80
2018-02-07T00:37:44.916Z,44.00
2018-02-07T00:42:39.236Z,38.30
2018-02-07T00:47:33.522Z,43.57
2018-02-07T00:52:27.854Z,40.10
2018-02-07T00:57:22.150Z,41.67
2018-02-07T01:02:16.450Z,44.03
2018-02-07T01:07:10.721Z,41.63
2018-02-07T01:12:04.996Z,40.80
2018-02-07T01:17:00.394Z,38.97
2018-02-07T01:21:54.676Z,42.43
2018-02-07T01:26:48.948Z,37.13
2018-02-07T01:31:43.239Z,44.43
2018-02-07T01:36:38.296Z,37.87
2018-02-07T01:41:32.568Z,43.07
2018-02-07T01:46:26.990Z,36.50
2018-02-07T01:51:21.039Z,41.10
2018-02-07T01:56:16.084Z,35.70
2018-02-07T02:01:10.370Z,39.80
2018-02-07T02:06:05.409Z,36.43
2018-02-07T02:10:59.889Z,37.67
2018-02-07T02:15:54.464Z,33.67
2018-02-07T02:20:49.088Z,37.63
2018-02-07T02:25:44.863Z,33.43
2018-02-07T02:30:39.337Z,38.57
2018-02-07T02:35:34.381Z,38.07
2018-02-07T02:40:29.123Z,41.37
2018-02-07T02:45:23.407Z,34.57
2018-02-07T02:50:17.940Z,33.40
2018-02-07T02:55:12.220Z,35.93
2018-02-07T03:00:06.265Z,34.77
2018-02-07T03:05:01.513Z,35.47
2018-02-07T03:09:55.780Z,34.90
2018-02-07T03:14:50.066Z,39.43
2018-02-07T03:19:44.411Z,37.50
2018-02-07T03:24:38.672Z,37.73
2018-02-07T03:29:33.216Z,34.73
2018-02-07T03:34:28.803Z,40.87
2018-02-07T03:39:23.069Z,33.57
2018-02-07T03:44:18.104Z,33.80
2018-02-07T03:49:12.387Z,35.00
2018-02-07T03:54:06.666Z,36.00
2018-02-07T03:59:00.928Z,38.93
2018-02-07T04:03:56.720Z,36.33
2018-02-07T04:08:50.987Z,38.43
2018-02-07T04:13:46.045Z,38.20
2018-02-07T04:18:40.323Z,38.73
2018-02-07T04:23:34.606Z,37.93
2018-02-07T04:28:29.766Z,34.87
2018-02-07T04:33:24.807Z,38.43
2018-02-07T04:38:19.284Z,39.93
2018-02-07T04:43:15.288Z,37.37
2018-02-07T04:48:10.328Z,36.70
2018-02-07T04:53:04.606Z,37.20
2018-02-07T04:57:59.848Z,41.50
2018-02-07T05:02:54.265Z,40.93
2018-02-07T05:07:48.590Z,37.47
2018-02-07T05:12:42.903Z,39.00
2018-02-07T05:17:37.198Z,45.73
2018-02-07T05:22:31.482Z,41.47
2018-02-07T05:27:25.773Z,44.50
2018-02-07T05:32:20.081Z,41.23
2018-02-07T05:37:14.375Z,42.10
2018-02-07T05:42:08.718Z,43.90
2018-02-07T05:47:03.832Z,42.80
2018-02-07T05:51:58.216Z,42.73
2018-02-07T05:56:52.532Z,38.87
2018-02-07T06:01:46.891Z,44.80
2018-02-07T06:06:41.204Z,49.50
2018-02-07T06:11:35.822Z,47.90
2018-02-07T06:16:30.149Z,48.93
2018-02-07T06:21:24.434Z,46.57
2018-02-07T06:26:18.719Z,49.40
2018-02-07T06:31:12.992Z,44.10
2018-02-07T06:36:07.105Z,48.27
2018-02-07T06:41:01.418Z,48.87
2018-02-07T06:45:55.705Z,46.13
2018-02-07T06:50:49.797Z,47.43
2018-02-07T06:55:44.632Z,44.40
2018-02-07T07:00:39.059Z,46.77
2018-02-07T07:05:33.373Z,46.63
2018-02-07T07:10:28.446Z,47.70
2018-02-07T07:15:22.724Z,40.37
2018-02-07T07:20:17.039Z,46.07
2018-02-07T07:25:11.323Z,43.60
2018-02-07T07:30:07.612Z,43.60
2018-02-07T07:35:01.944Z,45.07
2018-02-07T07:39:57.387Z,43.70
2018-02-07T07:44:51.684Z,39.37
2018-02-07T07:49:47.042Z,45.00
2018-02-07T07:54:41.340Z,44.30
2018-02-07T07:59:35.622Z,45.40
2018-02-07T08:04:30.049Z,45.37
2018-02-07T08:09:24.479Z,50.33
2018-02-07T08:14:18.810Z,42.63
2018-02-07T08:19:13.883Z,43.60
2018-02-07T08:24:08.249Z,46.27
2018-02-07T08:29:02.668Z,42.23
2018-02-07T08:33:56.953Z,37.57
2018-02-07T08:38:52.215Z,38.90
2018-02-07T08:43:46.518Z,41.20
2018-02-07T08:48:40.800Z,43.30
2018-02-07T08:53:35.370Z,43.57
2018-02-07T08:58:30.511Z,37.93
2018-02-07T09:03:24.942Z,39.17
2018-02-07T09:08:19.368Z,38.10
2018-02-07T09:13:14.117Z,38.63
2018-02-07T09:18:09.352Z,40.27
2018-02-07T09:23:03.408Z,40.80
2018-02-07T09:27:57.705Z,39.13
2018-02-07T09:32:52.110Z,42.57
2018-02-07T09:37:46.554Z,39.57
2018-02-07T09:42:40.968Z,43.70
2018-02-07T09:47:35.244Z,43.80
2018-02-07T09:52:30.311Z,47.10
2018-02-07T09:57:24.610Z,41.13
2018-02-07T10:02:18.937Z,42.77
2018-02-07T10:07:13.730Z,41.70
2018-02-07T10:12:08.032Z,38.50
2018-02-07T10:17:02.546Z,38.40
2018-02-07T10:21:56.862Z,39.23
2018-02-07T10:26:51.162Z,37.33
2018-02-07T10:31:45.550Z,39.40
2018-02-07T10:36:39.854Z,37.90
2018-02-07T10:41:34.144Z,38.13
2018-02-07T10:46:28.445Z,38.37
2018-02-07T10:51:22.758Z,48.47
2018-02-07T10:56:16.804Z,40.40
2018-02-07T11:01:11.117Z,41.37
2018-02-07T11:06:05.419Z,43.73
2018-02-07T11:10:59.698Z,43.00
2018-02-07T11:15:54.977Z,40.97
2018-02-07T11:20:49.282Z,38.67
2018-02-07T11:25:43.570Z,43.80
2018-02-07T11:30:37.887Z,40.67
2018-02-07T11:35:32.153Z,41.33
2018-02-07T11:40:26.594Z,43.30
2018-02-07T11:45:20.880Z,39.83
2018-02-07T11:50:15.168Z,42.13
2018-02-07T11:55:09.635Z,45.93
2018-02-07T12:00:04.877Z,45.23
2018-02-07T12:04:59.247Z,46.03
2018-02-07T12:09:54.370Z,46.37
2018-02-07T12:14:49.910Z,44.00
2018-02-07T12:19:44.446Z,47.90
2018-02-07T12:24:38.818Z,46.40
2018-02-07T12:29:33.110Z,47.70
2018-02-07T12:34:28.175Z,47.60
2018-02-07T12:39:22.461Z,47.87
2018-02-07T12:44:16.763Z,51.40
2018-02-07T12:49:11.041Z,48.80
2018-02-07T12:54:05.338Z,52.47
2018-02-07T12:58:59.725Z,50.10
2018-02-07T13:03:54.959Z,54.87
2018-02-07T13:08:49.985Z,48.20
2018-02-07T13:13:44.358Z,47.43
2018-02-07T13:18:38.672Z,50.87
2018-02-07T13:23:33.824Z,49.10
2018-02-07T13:28:28.159Z,51.70
2018-02-07T13:33:22.465Z,48.47
2018-02-07T13:38:17.525Z,48.70
2018-02-07T13:43:12.085Z,50.40
2018-02-07T13:48:06.557Z,52.77
2018-02-07T13:53:00.953Z,50.23
2018-02-07T13:57:55.321Z,48.83
2018-02-07T14:02:50.460Z,51.33
2018-02-07T14:07:44.799Z,51.40
2018-02-07T14:12:39.080Z,53.00
2018-02-07T14:17:33.429Z,53.50
2018-02-07T14:22:27.736Z,56.03
2018-02-07T14:27:22.024Z,47.33
2018-02-07T14:32:16.318Z,49.37
2018-02-07T14:37:10.740Z,50.17
2018-02-07T14:42:05.112Z,53.80
2018-02-07T14:46:59.392Z,50.17
2018-02-07T14:51:53.768Z,53.17
2018-02-07T14:56:48.848Z,51.43
2018-02-07T15:01:43.136Z,55.63
2018-02-07T15:06:37.430Z,55.00
2018-02-07T15:11:31.788Z,55.80
2018-02-07T15:16:26.855Z,57.37
2018-02-07T15:21:21.156Z,54.20
2018-02-07T15:26:15.470Z,53.27
2018-02-07T15:31:09.845Z,53.17
2018-02-07T15:36:04.148Z,51.00
2018-02-07T15:40:58.547Z,49.23
2018-02-07T15:45:52.843Z,44.93
2018-02-07T15:50:47.138Z,44.43
2018-02-07T15:55:41.533Z,40.77
2018-02-07T16:00:36.054Z,40.57
2018-02-07T16:05:30.375Z,39.77
2018-02-07T16:10:24.758Z,40.70
2018-02-07T16:15:19.044Z,36.13
2018-02-07T16:20:13.590Z,40.03
2018-02-07T16:25:07.989Z,34.67
2018-02-07T16:30:03.164Z,34.23
2018-02-07T16:34:58.207Z,37.50
2018-02-07T16:39:52.499Z,40.57
2018-02-07T16:44:46.793Z,36.90
2018-02-07T16:49:41.075Z,36.60
2018-02-07T16:54:36.307Z,36.67
2018-02-07T16:59:30.328Z,37.27
2018-02-07T17:04:24.640Z,33.93
2018-02-07T17:09:19.270Z,41.27
2018-02-07T17:14:13.574Z,36.60
2018-02-07T17:19:09.146Z,35.17
2018-02-07T17:24:03.446Z,37.87
2018-02-07T17:28:58.098Z,40.57
2018-02-07T17:33:52.401Z,36.97
2018-02-07T17:38:46.776Z,37.13
2018-02-07T17:43:41.075Z,35.60
2018-02-07T17:48:35.614Z,35.43
2018-02-07T17:53:29.966Z,44.57
2018-02-07T17:58:24.250Z,43.40
2018-02-07T18:03:19.562Z,43.73
2018-02-07T18:08:13.883Z,49.57
2018-02-07T18:13:09.037Z,43.20
2018-02-07T18:18:03.894Z,41.43
2018-02-07T18:22:58.366Z,42.83
2018-02-07T18:27:53.790Z,39.17
2018-02-07T18:32:48.274Z,41.87
2018-02-07T18:37:42.777Z,45.03
2018-02-07T18:42:37.906Z,48.60
2018-02-07T18:47:32.332Z,44.53
2018-02-07T18:52:27.254Z,42.70
2018-02-07T18:57:21.814Z,43.70
2018-02-07T19:02:18.767Z,43.77
2018-02-07T19:07:13.279Z,46.73
2018-02-07T19:12:08.440Z,46.97
2018-02-07T19:17:02.765Z,42.43
2018-02-07T19:21:57.079Z,47.93
2018-02-07T19:26:51.395Z,47.10
2018-02-07T19:31:46.768Z,52.27
2018-02-07T19:36:41.339Z,46.23
2018-02-07T19:41:36.882Z,50.97
2018-02-07T19:46:31.286Z,51.57
2018-02-07T19:51:25.785Z,50.03
2018-02-07T19:56:20.176Z,44.17
2018-02-07T20:01:16.377Z,50.80
2018-02-07T20:06:11.944Z,51.50
2018-02-07T20:11:07.145Z,51.37
2018-02-07T20:16:01.884Z,47.77
2018-02-07T20:20:57.010Z,45.13
2018-02-07T20:25:52.458Z,53.00
2018-02-07T20:30:46.869Z,45.43
2018-02-07T20:35:41.478Z,50.93
2018-02-07T20:40:36.047Z,50.33
2018-02-07T20:45:31.430Z,48.00
2018-02-07T20:50:25.831Z,51.70
2018-02-07T20:55:23.386Z,50.63
2018-02-07T21:00:17.700Z,49.97
2018-02-07T21:05:13.751Z,50.43
2018-02-07T21:10:10.242Z,48.67
2018-02-07T21:15:04.786Z,48.70
2018-02-07T21:19:59.580Z,60.07
2018-02-07T21:24:54.102Z,49.17
2018-02-07T21:29:49.789Z,44.70
2018-02-07T21:34:45.056Z,41.83
2018-02-07T21:39:39.623Z,47.37
2018-02-07T21:44:35.006Z,42.40
2018-02-07T21:49:29.334Z,47.83
2018-02-07T21:54:24.119Z,44.77
2018-02-07T21:59:18.593Z,41.47
2018-02-07T22:04:13.869Z,44.00
2018-02-07T22:09:08.912Z,41.50
2018-02-07T22:14:04.382Z,42.90
2018-02-07T22:18:58.682Z,47.40
2018-02-07T22:23:53.036Z,39.93
2018-02-07T22:28:47.503Z,40.43
2018-02-07T22:33:41.977Z,45.13
2018-02-07T22:38:37.357Z,40.13
2018-02-07T22:43:31.878Z,43.73
2018-02-07T22:48:26.777Z,42.33
2018-02-07T22:53:21.066Z,43.20
2018-02-07T22:58:15.705Z,43.60
2018-02-07T23:03:10.898Z,41.23
2018-02-07T23:08:05.254Z,37.73
2018-02-07T23:13:00.590Z,42.73
2018-02-07T23:17:55.644Z,38.47
2018-02-07T23:22:53.298Z,39.93
2018-02-07T23:27:47.829Z,39.90
2018-02-07T23:32:42.333Z,37.37
2018-02-07T23:37:37.488Z,41.73
2018-02-07T23:42:32.165Z,43.43
2018-02-07T23:47:27.311Z,41.13
2018-02-07T23:52:21.915Z,41.50
2018-02-07T23:57:16.321Z,40.67
